createdAt,value
2019-05-22T00:00:16.620Z,22.20
2019-05-22T00:02:46.009Z,23.73
2019-05-22T00:05:17.863Z,22.70
2019-05-22T00:07:47.827Z,23.03
2019-05-22T00:10:19.589Z,21.30
2019-05-22T00:12:49.428Z,21.97
2019-05-22T00:15:18.680Z,22.43
2019-05-22T00:17:48.985Z,22.07
2019-05-22T00:20:19.218Z,22.53
2019-05-22T00:22:48.401Z,21.73
2019-05-22T00:25:18.742Z,21.53
2019-05-22T00:27:49.985Z,21.93
2019-05-22T00:30:20.341Z,21.33
2019-05-22T00:32:48.747Z,22.27
2019-05-22T00:35:19.010Z,21.53
2019-05-22T00:37:47.655Z,22.73
2019-05-22T00:40:17.988Z,22.43
2019-05-22T00:43:03.362Z,23.33
2019-05-22T00:45:22.581Z,22.93
2019-05-22T00:47:54.491Z,22.17
2019-05-22T00:50:33.316Z,20.53
2019-05-22T00:53:05.069Z,20.93
2019-05-22T00:55:44.069Z,23.03
2019-05-22T00:58:26.504Z,20.97
2019-05-22T01:00:57.467Z,21.33
2019-05-22T01:03:30.088Z,23.93
2019-05-22T01:05:58.612Z,23.23
2019-05-22T01:08:28.591Z,25.30
2019-05-22T01:10:59.134Z,21.30
2019-05-22T01:13:34.332Z,24.33
2019-05-22T01:16:04.925Z,24.07
2019-05-22T01:18:35.893Z,24.07
2019-05-22T01:21:06.499Z,25.47
2019-05-22T01:23:36.750Z,24.40
2019-05-22T01:26:05.505Z,25.43
2019-05-22T01:28:35.666Z,25.40
2019-05-22T01:31:08.787Z,23.53
2019-05-22T01:33:39.690Z,23.63
2019-05-22T01:36:16.011Z,25.43
2019-05-22T01:38:45.491Z,24.13
2019-05-22T01:41:21.215Z,24.83
2019-05-22T01:43:51.340Z,23.40
2019-05-22T01:46:22.019Z,23.80
2019-05-22T01:48:53.781Z,22.63
2019-05-22T01:51:22.433Z,23.40
2019-05-22T01:53:51.846Z,24.57
2019-05-22T01:56:21.008Z,22.57
2019-05-22T01:58:49.864Z,24.13
2019-05-22T02:01:20.766Z,23.87
2019-05-22T02:03:50.865Z,24.07
2019-05-22T02:06:21.952Z,23.33
2019-05-22T02:08:59.306Z,22.40
2019-05-22T02:11:28.669Z,24.27
2019-05-22T02:14:06.412Z,24.53
2019-05-22T02:16:36.671Z,24.17
2019-05-22T02:19:05.153Z,24.30
2019-05-22T02:21:34.884Z,24.17
2019-05-22T02:24:05.059Z,23.27
2019-05-22T02:26:34.286Z,19.87
2019-05-22T02:29:03.067Z,22.47
2019-05-22T02:31:33.426Z,22.37
2019-05-22T02:34:03.759Z,23.73
2019-05-22T02:36:34.207Z,21.47
2019-05-22T02:39:04.230Z,22.70
2019-05-22T02:41:36.166Z,23.20
2019-05-22T02:44:05.201Z,24.33
2019-05-22T02:46:33.691Z,20.87
2019-05-22T02:49:02.275Z,23.70
2019-05-22T02:51:30.879Z,23.10
2019-05-22T02:54:00.330Z,24.57
2019-05-22T02:56:29.194Z,23.83
2019-05-22T02:58:57.783Z,23.70
2019-05-22T03:01:27.128Z,23.90
2019-05-22T03:03:55.827Z,24.27
2019-05-22T03:06:24.316Z,25.07
2019-05-22T03:08:59.613Z,24.40
2019-05-22T03:11:34.850Z,25.33
2019-05-22T03:14:03.931Z,24.97
2019-05-22T03:16:51.096Z,25.37
2019-05-22T03:19:26.268Z,26.60
2019-05-22T03:21:55.352Z,26.30
2019-05-22T03:24:24.759Z,26.90
2019-05-22T03:26:54.177Z,26.83
2019-05-22T03:29:28.492Z,26.93
2019-05-22T03:31:57.088Z,26.97
2019-05-22T03:34:25.830Z,26.57
2019-05-22T03:36:54.243Z,28.80
2019-05-22T03:39:22.741Z,26.67
2019-05-22T03:41:52.000Z,27.83
2019-05-22T03:44:22.589Z,28.90
2019-05-22T03:46:52.319Z,27.80
2019-05-22T03:49:30.365Z,27.07
2019-05-22T03:51:55.775Z,28.30
2019-05-22T03:54:25.961Z,28.83
2019-05-22T03:56:54.384Z,27.40
2019-05-22T03:59:23.386Z,25.97
2019-05-22T04:01:52.170Z,25.67
2019-05-22T04:04:39.865Z,24.83
2019-05-22T04:07:12.263Z,26.60
2019-05-22T04:09:43.114Z,26.23
2019-05-22T04:12:13.544Z,24.30
2019-05-22T04:14:42.220Z,22.37
2019-05-22T04:17:12.980Z,22.37
2019-05-22T04:19:49.179Z,23.40
2019-05-22T04:22:14.290Z,22.40
2019-05-22T04:24:43.289Z,22.67
2019-05-22T04:27:12.352Z,21.57
2019-05-22T04:29:42.117Z,21.53
2019-05-22T04:32:13.745Z,22.37
2019-05-22T04:34:42.612Z,21.43
2019-05-22T04:37:13.615Z,20.93
2019-05-22T04:39:43.741Z,21.47
2019-05-22T04:42:13.768Z,22.10
2019-05-22T04:45:02.372Z,22.07
2019-05-22T04:47:30.871Z,21.97
2019-05-22T04:50:07.591Z,23.07
2019-05-22T04:52:29.810Z,24.23
2019-05-22T04:54:59.114Z,20.47
2019-05-22T04:57:27.613Z,20.37
2019-05-22T04:59:56.472Z,20.20
2019-05-22T05:02:24.886Z,19.17
2019-05-22T05:04:53.394Z,19.47
2019-05-22T05:07:22.762Z,19.17
2019-05-22T05:09:51.359Z,19.07
2019-05-22T05:12:19.867Z,17.77
2019-05-22T05:14:48.450Z,19.63
2019-05-22T05:17:17.639Z,20.03
2019-05-22T05:19:46.510Z,20.10
2019-05-22T05:22:17.975Z,18.20
2019-05-22T05:24:46.414Z,18.33
2019-05-22T05:27:15.101Z,17.87
2019-05-22T05:29:43.529Z,17.50
2019-05-22T05:32:12.206Z,17.93
2019-05-22T05:34:49.101Z,17.23
2019-05-22T05:37:19.590Z,18.30
2019-05-22T05:39:51.073Z,16.17
2019-05-22T05:42:19.583Z,16.03
2019-05-22T05:44:48.004Z,15.57
2019-05-22T05:47:17.894Z,15.23
2019-05-22T05:49:47.365Z,14.37
2019-05-22T05:52:17.606Z,13.93
2019-05-22T05:54:47.797Z,14.27
2019-05-22T05:57:34.465Z,14.07
2019-05-22T06:00:05.151Z,14.40
2019-05-22T06:02:33.564Z,13.37
2019-05-22T06:05:02.070Z,13.47
2019-05-22T06:07:30.482Z,13.30
2019-05-22T06:10:18.333Z,13.07
2019-05-22T06:12:48.282Z,14.13
2019-05-22T06:15:16.789Z,13.17
2019-05-22T06:17:51.876Z,12.07
2019-05-22T06:20:22.023Z,11.87
2019-05-22T06:23:16.468Z,13.70
2019-05-22T06:25:46.546Z,12.80
2019-05-22T06:28:15.031Z,13.87
2019-05-22T06:30:46.288Z,13.93
2019-05-22T06:33:29.622Z,13.23
2019-05-22T06:35:59.295Z,13.17
2019-05-22T06:38:43.034Z,13.57
2019-05-22T06:41:12.335Z,12.90
2019-05-22T06:43:43.808Z,12.83
2019-05-22T06:46:14.602Z,13.60
2019-05-22T06:48:44.765Z,13.33
2019-05-22T06:51:19.320Z,13.30
2019-05-22T06:53:44.015Z,15.17
2019-05-22T06:56:12.613Z,13.77
2019-05-22T06:58:41.222Z,14.57
2019-05-22T07:01:10.012Z,13.30
2019-05-22T07:03:38.420Z,13.23
2019-05-22T07:06:06.867Z,12.53
2019-05-22T07:08:35.372Z,12.90
2019-05-22T07:11:03.859Z,13.17
2019-05-22T07:13:32.307Z,12.57
2019-05-22T07:16:02.676Z,12.10
2019-05-22T07:18:31.942Z,12.13
2019-05-22T07:21:01.078Z,11.83
2019-05-22T07:23:31.962Z,12.73
2019-05-22T07:26:01.320Z,12.47
2019-05-22T07:28:30.208Z,11.80
2019-05-22T07:30:58.759Z,10.83
2019-05-22T07:33:27.199Z,10.27
2019-05-22T07:36:09.235Z,10.53
2019-05-22T07:38:26.824Z,10.20
2019-05-22T07:40:55.857Z,9.73
2019-05-22T07:43:24.409Z,10.73
2019-05-22T07:45:54.064Z,10.00
2019-05-22T07:48:25.913Z,10.17
2019-05-22T07:50:56.858Z,10.60
2019-05-22T07:53:26.621Z,10.73
2019-05-22T07:55:56.430Z,9.93
2019-05-22T07:58:25.703Z,10.07
2019-05-22T08:00:56.407Z,9.30
2019-05-22T08:03:26.170Z,9.90
2019-05-22T08:05:56.419Z,9.37
2019-05-22T08:08:26.464Z,10.13
2019-05-22T08:10:56.978Z,10.77
2019-05-22T08:13:26.465Z,10.23
2019-05-22T08:15:55.020Z,10.90
2019-05-22T08:18:24.162Z,10.67
2019-05-22T08:20:52.654Z,12.53
2019-05-22T08:23:22.426Z,12.33
2019-05-22T08:25:51.889Z,10.40
2019-05-22T08:28:21.235Z,11.90
2019-05-22T08:30:50.290Z,9.60
2019-05-22T08:33:20.729Z,11.80
2019-05-22T08:35:49.485Z,12.40
2019-05-22T08:38:18.535Z,11.20
2019-05-22T08:40:48.699Z,11.63
2019-05-22T08:43:17.768Z,11.53
2019-05-22T08:45:46.218Z,10.37
2019-05-22T08:48:14.915Z,11.30
2019-05-22T08:50:45.248Z,10.93
2019-05-22T08:53:16.096Z,12.50
2019-05-22T08:55:45.381Z,11.73
2019-05-22T08:58:16.203Z,10.77
2019-05-22T09:00:45.294Z,10.70
2019-05-22T09:03:14.622Z,9.87
2019-05-22T09:05:43.117Z,9.43
2019-05-22T09:08:11.533Z,10.17
2019-05-22T09:10:39.958Z,9.67
2019-05-22T09:13:09.384Z,10.07
2019-05-22T09:15:39.544Z,10.83
2019-05-22T09:18:08.778Z,9.90
2019-05-22T09:20:48.820Z,8.20
2019-05-22T09:23:09.720Z,8.70
2019-05-22T09:25:38.590Z,8.30
2019-05-22T09:28:07.188Z,8.40
2019-05-22T09:30:36.472Z,9.03
2019-05-22T09:33:05.660Z,9.50
2019-05-22T09:35:34.636Z,8.17
2019-05-22T09:38:03.152Z,9.43
2019-05-22T09:40:32.522Z,9.70
2019-05-22T09:43:02.059Z,8.83
2019-05-22T09:45:30.935Z,9.03
2019-05-22T09:47:59.950Z,9.50
2019-05-22T09:50:29.148Z,10.07
2019-05-22T09:52:58.457Z,10.50
2019-05-22T09:55:27.166Z,10.60
2019-05-22T09:57:55.750Z,11.43
2019-05-22T10:00:25.096Z,11.30
2019-05-22T10:02:53.828Z,11.43
2019-05-22T10:05:22.554Z,11.77
2019-05-22T10:08:00.335Z,11.60
2019-05-22T10:10:21.896Z,11.00
2019-05-22T10:12:50.839Z,11.00
2019-05-22T10:15:20.587Z,10.00
2019-05-22T10:17:50.047Z,9.63
2019-05-22T10:20:20.199Z,9.30
2019-05-22T10:22:49.307Z,10.40
2019-05-22T10:25:18.607Z,9.87
2019-05-22T10:27:48.025Z,10.03
2019-05-22T10:30:20.830Z,8.97
2019-05-22T10:32:50.188Z,9.80
2019-05-22T10:35:22.398Z,9.03
2019-05-22T10:37:51.153Z,9.90
2019-05-22T10:40:20.626Z,10.33
2019-05-22T10:42:49.445Z,9.20
2019-05-22T10:45:17.932Z,10.23
2019-05-22T10:47:47.549Z,9.67
2019-05-22T10:50:16.537Z,10.07
2019-05-22T10:52:45.052Z,9.20
2019-05-22T10:55:14.469Z,9.33
2019-05-22T10:57:44.557Z,8.83
2019-05-22T11:00:15.954Z,9.30
2019-05-22T11:02:45.058Z,10.17
2019-05-22T11:05:14.141Z,9.00
2019-05-22T11:07:43.403Z,9.17
2019-05-22T11:10:13.862Z,9.37
2019-05-22T11:12:42.242Z,9.27
2019-05-22T11:15:13.057Z,9.80
2019-05-22T11:17:41.569Z,9.97
2019-05-22T11:20:12.194Z,9.63
2019-05-22T11:22:40.980Z,9.17
2019-05-22T11:25:11.102Z,8.80
2019-05-22T11:27:40.655Z,8.93
2019-05-22T11:30:13.827Z,7.93
2019-05-22T11:32:42.435Z,8.43
2019-05-22T11:35:12.536Z,8.30
2019-05-22T11:37:41.034Z,8.90
2019-05-22T11:40:11.583Z,7.47
2019-05-22T11:42:40.227Z,8.30
2019-05-22T11:45:11.629Z,8.70
2019-05-22T11:47:40.997Z,8.53
2019-05-22T11:50:11.888Z,7.60
2019-05-22T11:52:41.858Z,7.27
2019-05-22T11:55:12.991Z,7.23
2019-05-22T11:57:43.533Z,7.90
2019-05-22T12:00:14.992Z,7.90
2019-05-22T12:02:45.221Z,8.93
2019-05-22T12:05:14.085Z,8.67
2019-05-22T12:07:43.440Z,8.23
2019-05-22T12:10:14.237Z,9.03
2019-05-22T12:12:44.528Z,8.57
2019-05-22T12:15:13.921Z,8.77
2019-05-22T12:17:42.888Z,8.67
2019-05-22T12:20:13.245Z,8.10
2019-05-22T12:22:42.523Z,7.53
2019-05-22T12:25:13.601Z,8.30
2019-05-22T12:27:42.485Z,8.63
2019-05-22T12:30:13.085Z,7.90
2019-05-22T12:32:42.029Z,9.30
2019-05-22T12:35:13.863Z,8.17
2019-05-22T12:37:42.999Z,8.77
2019-05-22T12:40:15.512Z,8.93
2019-05-22T12:42:45.297Z,8.33
2019-05-22T12:45:16.206Z,8.37
2019-05-22T12:47:44.637Z,9.47
2019-05-22T12:50:16.874Z,9.00
2019-05-22T12:52:50.664Z,10.20
2019-05-22T12:55:20.777Z,11.10
2019-05-22T12:57:50.735Z,10.17
2019-05-22T13:00:23.894Z,10.40
2019-05-22T13:02:53.959Z,11.27
2019-05-22T13:05:23.375Z,9.97
2019-05-22T13:07:52.082Z,10.53
2019-05-22T13:10:22.268Z,9.90
2019-05-22T13:12:50.841Z,10.57
2019-05-22T13:15:19.770Z,10.70
2019-05-22T13:17:48.978Z,10.10
2019-05-22T13:20:40.470Z,10.07
2019-05-22T13:22:53.880Z,9.60
2019-05-22T13:25:26.147Z,8.90
2019-05-22T13:27:55.003Z,9.90
2019-05-22T13:30:28.464Z,8.80
2019-05-22T13:32:57.124Z,8.23
2019-05-22T13:35:26.774Z,8.70
2019-05-22T13:37:57.093Z,8.10
2019-05-22T13:40:28.113Z,7.73
2019-05-22T13:42:57.899Z,8.53
2019-05-22T13:45:29.714Z,8.20
2019-05-22T13:48:01.798Z,8.30
2019-05-22T13:50:30.743Z,8.20
2019-05-22T13:53:02.818Z,6.97
2019-05-22T13:55:33.347Z,8.80
2019-05-22T13:58:02.092Z,7.47
2019-05-22T14:00:30.831Z,7.90
2019-05-22T14:02:59.798Z,7.30
2019-05-22T14:05:29.462Z,8.00
2019-05-22T14:07:58.137Z,7.50
2019-05-22T14:10:28.875Z,7.47
2019-05-22T14:12:58.216Z,6.47
2019-05-22T14:15:26.980Z,6.37
2019-05-22T14:17:55.414Z,6.97
2019-05-22T14:20:26.057Z,6.23
2019-05-22T14:22:54.648Z,5.90
2019-05-22T14:25:25.071Z,5.50
2019-05-22T14:27:53.638Z,5.53
2019-05-22T14:30:24.853Z,6.27
2019-05-22T14:32:53.337Z,5.20
2019-05-22T14:35:23.608Z,6.17
2019-05-22T14:37:52.160Z,5.57
2019-05-22T14:40:21.107Z,5.50
2019-05-22T14:42:49.609Z,5.40
2019-05-22T14:45:18.782Z,6.00
2019-05-22T14:47:47.360Z,5.60
2019-05-22T14:50:15.944Z,6.63
2019-05-22T14:52:44.464Z,6.23
2019-05-22T14:55:13.988Z,4.63
2019-05-22T14:57:42.726Z,4.63
2019-05-22T15:00:13.450Z,6.00
2019-05-22T15:02:42.060Z,5.37
2019-05-22T15:05:11.223Z,4.37
2019-05-22T15:07:40.026Z,5.47
2019-05-22T15:10:09.602Z,5.17
2019-05-22T15:12:38.108Z,4.63
2019-05-22T15:15:08.257Z,5.00
2019-05-22T15:17:37.298Z,4.93
2019-05-22T15:20:08.340Z,4.33
2019-05-22T15:22:37.524Z,4.60
2019-05-22T15:25:07.563Z,4.00
2019-05-22T15:27:37.016Z,4.57
2019-05-22T15:30:06.985Z,4.63
2019-05-22T15:32:35.476Z,4.00
2019-05-22T15:35:04.960Z,4.00
2019-05-22T15:37:34.659Z,3.83
2019-05-22T15:40:05.714Z,4.40
2019-05-22T15:42:42.857Z,3.90
2019-05-22T15:45:23.249Z,3.70
2019-05-22T15:47:56.292Z,3.63
2019-05-22T15:50:33.284Z,3.67
2019-05-22T15:53:07.730Z,3.47
2019-05-22T15:55:36.521Z,3.97
2019-05-22T15:58:08.765Z,4.23
2019-05-22T16:00:38.856Z,3.90
2019-05-22T16:03:10.216Z,4.37
2019-05-22T16:05:40.340Z,3.90
2019-05-22T16:08:09.922Z,4.03
2019-05-22T16:10:41.030Z,4.70
2019-05-22T16:13:12.629Z,4.00
2019-05-22T16:15:43.663Z,4.30
2019-05-22T16:18:13.780Z,4.27
2019-05-22T16:20:43.739Z,5.00
2019-05-22T16:23:13.155Z,4.20
2019-05-22T16:25:42.795Z,4.73
2019-05-22T16:28:14.495Z,4.60
2019-05-22T16:30:43.773Z,5.33
2019-05-22T16:33:13.888Z,4.33
2019-05-22T16:35:42.392Z,3.40
2019-05-22T16:38:11.435Z,3.53
2019-05-22T16:40:41.268Z,4.00
2019-05-22T16:43:09.812Z,4.17
2019-05-22T16:45:39.372Z,3.43
2019-05-22T16:48:09.288Z,3.57
2019-05-22T16:50:39.038Z,4.27
2019-05-22T16:53:13.154Z,4.00
2019-05-22T16:55:42.511Z,4.07
2019-05-22T16:58:13.046Z,3.60
2019-05-22T17:00:44.216Z,4.40
2019-05-22T17:03:15.276Z,3.60
2019-05-22T17:05:44.667Z,4.13
2019-05-22T17:08:13.522Z,4.00
2019-05-22T17:10:42.411Z,3.63
2019-05-22T17:13:14.328Z,3.60
2019-05-22T17:15:43.962Z,4.17
2019-05-22T17:18:16.276Z,4.07
2019-05-22T17:20:46.903Z,4.37
2019-05-22T17:23:15.374Z,4.43
2019-05-22T17:25:44.338Z,3.53
2019-05-22T17:28:13.116Z,4.00
2019-05-22T17:30:42.573Z,3.57
2019-05-22T17:33:11.824Z,3.40
2019-05-22T17:35:42.144Z,3.60
2019-05-22T17:38:11.000Z,3.77
2019-05-22T17:40:41.327Z,3.60
2019-05-22T17:43:10.990Z,4.13
2019-05-22T17:45:42.761Z,3.77
2019-05-22T17:48:14.587Z,4.07
2019-05-22T17:50:44.548Z,3.80
2019-05-22T17:53:13.279Z,3.90
2019-05-22T17:55:42.350Z,3.70
2019-05-22T17:58:11.792Z,3.10
2019-05-22T18:00:42.196Z,3.60
2019-05-22T18:03:10.950Z,3.63
2019-05-22T18:05:40.544Z,4.23
2019-05-22T18:08:10.260Z,3.50
2019-05-22T18:10:40.940Z,3.60
2019-05-22T18:13:10.066Z,3.83
2019-05-22T18:15:38.745Z,3.60
2019-05-22T18:18:07.779Z,3.37
2019-05-22T18:20:43.306Z,3.03
2019-05-22T18:23:06.561Z,3.43
2019-05-22T18:25:35.347Z,3.27
2019-05-22T18:28:04.892Z,3.20
2019-05-22T18:30:35.135Z,3.87
2019-05-22T18:33:03.623Z,3.13
2019-05-22T18:35:32.579Z,3.13
2019-05-22T18:38:04.704Z,3.43
2019-05-22T18:40:31.255Z,2.97
2019-05-22T18:42:59.658Z,3.20
2019-05-22T18:45:28.719Z,3.13
2019-05-22T18:47:57.368Z,3.33
2019-05-22T18:50:26.837Z,3.87
2019-05-22T18:52:55.367Z,3.03
2019-05-22T18:55:23.778Z,2.60
2019-05-22T18:57:52.263Z,3.53
2019-05-22T19:00:23.251Z,3.57
2019-05-22T19:02:51.948Z,3.33
2019-05-22T19:05:26.754Z,3.23
2019-05-22T19:07:55.663Z,3.07
2019-05-22T19:10:24.386Z,3.53
2019-05-22T19:12:53.086Z,3.03
2019-05-22T19:15:22.800Z,3.63
2019-05-22T19:17:51.225Z,3.30
2019-05-22T19:20:19.628Z,3.13
2019-05-22T19:22:59.506Z,3.50
2019-05-22T19:25:18.351Z,3.40
2019-05-22T19:27:46.766Z,3.40
2019-05-22T19:30:18.546Z,3.77
2019-05-22T19:32:47.428Z,3.10
2019-05-22T19:35:15.970Z,3.27
2019-05-22T19:37:46.307Z,3.33
2019-05-22T19:40:16.371Z,3.03
2019-05-22T19:42:44.781Z,3.20
2019-05-22T19:45:14.331Z,3.43
2019-05-22T19:47:48.728Z,3.30
2019-05-22T19:50:23.226Z,3.37
2019-05-22T19:52:48.045Z,3.03
2019-05-22T19:55:19.183Z,3.00
2019-05-22T19:57:47.774Z,3.17
2019-05-22T20:00:16.767Z,3.17
2019-05-22T20:02:45.944Z,3.90
2019-05-22T20:05:14.893Z,3.23
2019-05-22T20:07:43.313Z,3.10
2019-05-22T20:10:12.456Z,3.47
2019-05-22T20:12:41.559Z,3.40
2019-05-22T20:15:11.179Z,3.33
2019-05-22T20:17:39.595Z,3.43
2019-05-22T20:20:10.306Z,3.00
2019-05-22T20:22:39.148Z,3.50
2019-05-22T20:25:08.859Z,3.63
2019-05-22T20:27:38.261Z,2.73
2019-05-22T20:30:08.961Z,3.67
2019-05-22T20:32:38.118Z,3.50
2019-05-22T20:35:08.934Z,3.63
2019-05-22T20:37:37.433Z,3.87
2019-05-22T20:40:10.011Z,3.33
2019-05-22T20:42:39.591Z,3.00
2019-05-22T20:45:09.272Z,3.70
2019-05-22T20:47:39.410Z,3.50
2019-05-22T20:50:12.584Z,3.30
2019-05-22T20:52:41.471Z,3.97
2019-05-22T20:55:12.189Z,3.77
2019-05-22T20:57:42.554Z,3.27
2019-05-22T21:00:15.095Z,3.27
2019-05-22T21:02:45.531Z,3.63
2019-05-22T21:05:18.183Z,3.63
2019-05-22T21:07:49.664Z,3.53
2019-05-22T21:10:19.615Z,3.40
2019-05-22T21:12:48.666Z,3.57
2019-05-22T21:15:18.291Z,3.60
2019-05-22T21:17:46.987Z,3.07
2019-05-22T21:20:17.471Z,3.73
2019-05-22T21:22:46.255Z,3.90
2019-05-22T21:25:14.792Z,4.13
2019-05-22T21:27:43.200Z,3.83
2019-05-22T21:30:13.906Z,3.93
2019-05-22T21:32:43.736Z,3.63
2019-05-22T21:35:14.047Z,4.03
2019-05-22T21:37:42.456Z,4.13
2019-05-22T21:40:11.997Z,3.27
2019-05-22T21:42:41.769Z,4.10
2019-05-22T21:45:11.150Z,4.10
2019-05-22T21:47:41.233Z,3.67
2019-05-22T21:50:11.226Z,3.67
2019-05-22T21:52:40.029Z,3.97
2019-05-22T21:55:11.225Z,3.60
2019-05-22T21:57:40.490Z,4.03
2019-05-22T22:00:16.099Z,3.93
2019-05-22T22:02:48.741Z,4.10
2019-05-22T22:05:19.197Z,3.73
2019-05-22T22:07:48.067Z,3.50
2019-05-22T22:10:17.127Z,3.90
2019-05-22T22:12:47.760Z,3.97
2019-05-22T22:15:16.785Z,3.57
2019-05-22T22:17:46.819Z,3.70
2019-05-22T22:20:18.325Z,3.20
2019-05-22T22:22:49.084Z,3.33
2019-05-22T22:25:17.560Z,3.23
2019-05-22T22:27:46.746Z,3.47
2019-05-22T22:30:27.599Z,4.07
2019-05-22T22:32:58.256Z,3.73
2019-05-22T22:35:26.739Z,3.03
2019-05-22T22:37:56.487Z,4.17
2019-05-22T22:40:27.276Z,3.47
2019-05-22T22:42:56.346Z,3.60
2019-05-22T22:45:35.091Z,3.83
2019-05-22T22:48:03.761Z,4.40
2019-05-22T22:50:32.448Z,3.80
2019-05-22T22:53:02.749Z,3.83
2019-05-22T22:55:31.445Z,3.87
2019-05-22T22:58:16.107Z,3.87
2019-05-22T23:00:35.264Z,3.70
2019-05-22T23:03:04.275Z,3.20
2019-05-22T23:05:35.493Z,4.47
2019-05-22T23:08:04.506Z,3.60
2019-05-22T23:10:33.398Z,3.63
2019-05-22T23:13:03.513Z,4.13
2019-05-22T23:15:32.579Z,3.83
2019-05-22T23:18:02.165Z,3.70
2019-05-22T23:20:29.435Z,4.17
2019-05-22T23:22:57.259Z,3.90
2019-05-22T23:25:25.952Z,4.07
2019-05-22T23:27:55.802Z,4.13
2019-05-22T23:30:24.782Z,4.47
2019-05-22T23:32:54.448Z,3.83
2019-05-22T23:35:24.767Z,3.47
2019-05-22T23:37:53.804Z,4.17
2019-05-22T23:40:25.870Z,3.63
2019-05-22T23:42:54.530Z,3.80
2019-05-22T23:45:24.457Z,3.60
2019-05-22T23:47:59.038Z,3.67
2019-05-22T23:50:28.500Z,3.83
2019-05-22T23:52:58.438Z,3.47
2019-05-22T23:55:26.947Z,3.90
2019-05-22T23:57:55.961Z,3.67
